Zim Panama — VSWW5 — position and weather

sailwx.info

Track history (hours):
 
Tides and Currents Weather Stations Pressure Air Temp Water Temp Dewpoint Dewpoint Depression Visibility Wind Speed Wind Dir Waves Ship Positions

Zim Panama

Last reported at 2015-May-15 17:33 UTC. Time now 2015-May-27 15:59 UTC.
Position N 01°48' E 102°33'.
Warning: this ship's position is 11 days out of date.

Length 294.12 m; beam 32.2 m; draft 9.45 m.

Type: Ship (hazmat cat C). MMSI: 235474000.

Date/timePositionNaut miles runAvg speedWind from/ knotsBaromVisibWave heightAir tempDewpointWater temp
2015-May-15 17:33N 01°48' E 102°33'1917.4
2015-May-15 16:28N 01°40' E 102°50'6813.8
2015-May-15 11:30N 01°14' E 103°53'0 0.3
2015-May-15 10:16N 01°15' E 103°53'0 0.0
2015-May-15 09:13N 01°15' E 103°53'0 0.1
2015-May-15 07:31N 01°15' E 103°53'0 0.1
2015-May-15 03:21N 01°15' E 103°53'0 0.1
2015-May-15 02:30N 01°15' E 103°53'0 0.2
2015-May-15 01:33N 01°15' E 103°53'0 0.1
2015-May-15 00:30N 01°15' E 103°53'0 0.1
2015-May-14 23:33N 01°15' E 103°53'6 5.4
2015-May-14 22:31N 01°13' E 103°48'4 0.8
2015-May-14 18:21N 01°16' E 103°46'0 0.0
2015-May-14 17:15N 01°16' E 103°46'0 0.0
2015-May-14 16:26N 01°16' E 103°46'0 0.0
2015-May-14 15:14N 01°16' E 103°46'0 0.0
2015-May-14 14:25N 01°16' E 103°46'0 0.0
2015-May-14 13:13N 01°16' E 103°46'0 0.0
2015-May-14 10:04N 01°16' E 103°46'0 0.0
2015-May-14 07:31N 01°16' E 103°46'0 0.0
2015-May-14 04:16N 01°16' E 103°46'0 0.0
2015-May-14 02:04N 01°16' E 103°46'0 0.0
2015-May-13 23:31N 01°16' E 103°46'7 5.0
2015-May-13 22:07N 01°13' E 103°53'4 6.2
2015-May-13 21:25N 01°15' E 103°57'1011.1
2015-May-13 20:33N 01°16' E 104°06'  
Track history (hours):
 
Tides and Currents Weather Stations Pressure Air Temp Water Temp Dewpoint Dewpoint Depression Visibility Wind Speed Wind Dir Waves Ship Positions

Zim Panama

Last reported at 2015-May-15 17:33 UTC. Time now 2015-May-27 15:59 UTC.
Position N 01°48' E 102°33'.
Warning: this ship's position is 11 days out of date.

Length 294.12 m; beam 32.2 m; draft 9.45 m.

Type: Ship (hazmat cat C). MMSI: 235474000.

Date/timePositionNaut miles runAvg speedWind from/ knotsBaromVisibWave heightAir tempDewpointWater temp
2015-May-15 17:33N 01°48' E 102°33'1917.4
2015-May-15 16:28N 01°40' E 102°50'6813.8
2015-May-15 11:30N 01°14' E 103°53'0 0.3
2015-May-15 10:16N 01°15' E 103°53'0 0.0
2015-May-15 09:13N 01°15' E 103°53'0 0.1
2015-May-15 07:31N 01°15' E 103°53'0 0.1
2015-May-15 03:21N 01°15' E 103°53'0 0.1
2015-May-15 02:30N 01°15' E 103°53'0 0.2
2015-May-15 01:33N 01°15' E 103°53'0 0.1
2015-May-15 00:30N 01°15' E 103°53'0 0.1
2015-May-14 23:33N 01°15' E 103°53'6 5.4
2015-May-14 22:31N 01°13' E 103°48'4 0.8
2015-May-14 18:21N 01°16' E 103°46'0 0.0
2015-May-14 17:15N 01°16' E 103°46'0 0.0
2015-May-14 16:26N 01°16' E 103°46'0 0.0
2015-May-14 15:14N 01°16' E 103°46'0 0.0
2015-May-14 14:25N 01°16' E 103°46'0 0.0
2015-May-14 13:13N 01°16' E 103°46'0 0.0
2015-May-14 10:04N 01°16' E 103°46'0 0.0
2015-May-14 07:31N 01°16' E 103°46'0 0.0
2015-May-14 04:16N 01°16' E 103°46'0 0.0
2015-May-14 02:04N 01°16' E 103°46'0 0.0
2015-May-13 23:31N 01°16' E 103°46'7 5.0
2015-May-13 22:07N 01°13' E 103°53'4 6.2
2015-May-13 21:25N 01°15' E 103°57'1011.1
2015-May-13 20:33N 01°16' E 104°06'  

Dump ship's entire track history